Time;durP1;ratioP1;P1;durP2;ratioP2;P2;SDS_P1;SDS_P2;PMS_P1;PMS_P2;Temp;Humidity;BMP_temperature;BMP_pressure;BME280_temperature;BME280_humidity;BME280_pressure;Samples;Min_cycle;Max_cycle;Signal;HPM_P1;HPM_P2
2021/04/13 00:01:11;;;;;;;8.85;6.15;;;;;;;5.72;49.55;103044.50;4920491;28;108706;-71
2021/04/13 00:03:40;;;;;;;12.40;6.78;;;;;;;5.70;49.84;103041.00;4919343;28;124172;-71
2021/04/13 00:06:25;;;;;;;11.48;7.15;;;;;;;5.66;49.54;103034.81;4918445;28;123229;-71
2021/04/13 00:08:57;;;;;;;15.02;6.93;;;;;;;5.63;49.90;103040.94;4918331;28;108621;-71
2021/04/13 00:11:25;;;;;;;12.38;7.22;;;;;;;5.60;49.74;103040.88;4920507;28;109133;-72
2021/04/13 00:13:57;;;;;;;12.70;6.47;;;;;;;5.59;49.98;103044.38;4919720;28;124492;-71
2021/04/13 00:16:28;;;;;;;9.88;6.43;;;;;;;5.57;49.88;103043.47;4916330;28;124528;-71
2021/04/13 00:18:56;;;;;;;10.32;6.20;;;;;;;5.56;50.14;103048.72;4918462;28;110274;-72
2021/04/13 00:21:30;;;;;;;10.00;6.55;;;;;;;5.54;50.09;103040.81;4920284;28;109819;-71
2021/04/13 00:24:00;;;;;;;10.65;6.07;;;;;;;5.52;50.11;103042.56;4918422;28;124271;-72
2021/04/13 00:26:29;;;;;;;9.60;6.80;;;;;;;5.50;50.19;103048.63;4915780;28;123131;-71
2021/04/13 00:29:00;;;;;;;9.43;6.10;;;;;;;5.48;50.13;103048.63;4917031;28;109381;-71
2021/04/13 00:31:42;;;;;;;11.77;6.32;;;;;;;5.48;50.34;103061.75;4935045;28;108488;-74
2021/04/13 00:34:27;;;;;;;11.57;6.25;;;;;;;5.47;50.27;103049.50;4932958;28;122136;-72
2021/04/13 00:37:10;;;;;;;10.65;6.00;;;;;;;5.44;50.21;103058.25;4918932;28;124155;-71
2021/04/13 00:39:37;;;;;;;12.82;6.00;;;;;;;5.44;50.12;103049.44;4917858;28;108911;-75
2021/04/13 00:42:13;;;;;;;10.40;6.45;;;;;;;5.43;50.40;103060.84;4917007;28;109051;-71
2021/04/13 00:44:45;;;;;;;10.77;6.18;;;;;;;5.42;50.44;103061.69;4917920;28;124625;-72
2021/04/13 00:47:21;;;;;;;15.23;6.55;;;;;;;5.41;50.64;103065.19;4917003;28;123806;-72
2021/04/13 00:49:52;;;;;;;12.23;6.47;;;;;;;5.40;50.39;103058.16;4916481;28;109908;-72
2021/04/13 00:52:27;;;;;;;11.35;6.38;;;;;;;5.39;50.70;103059.91;4918137;28;109856;-72
2021/04/13 00:54:58;;;;;;;13.32;6.35;;;;;;;5.37;50.51;103058.13;4916594;28;124412;-72
2021/04/13 00:57:38;;;;;;;9.27;5.93;;;;;;;5.35;50.60;103059.84;4932498;28;122922;-71
2021/04/13 01:00:08;;;;;;;11.00;6.03;;;;;;;5.34;50.64;103063.34;4932832;28;108615;-71
2021/04/13 01:02:35;;;;;;;9.15;6.18;;;;;;;5.31;50.87;103058.91;4919076;28;111419;-72
2021/04/13 01:05:16;;;;;;;13.43;6.72;;;;;;;5.29;50.61;103062.41;4919872;28;124244;-71
2021/04/13 01:07:54;;;;;;;10.82;6.28;;;;;;;5.29;50.56;103059.78;4917296;28;123407;-71
2021/04/13 01:10:33;;;;;;;10.38;6.18;;;;;;;5.24;50.82;103047.47;4933699;28;108033;-73
2021/04/13 01:13:09;;;;;;;9.77;5.53;;;;;;;5.23;50.75;103061.44;4917008;28;110393;-71
2021/04/13 01:15:36;;;;;;;;;;;;;;;5.21;50.58;103057.91;4918961;28;122432;-71
2021/04/13 01:18:08;;;;;;;10.50;5.82;;;;;;;5.21;50.51;103062.31;4928628;28;123958;-71
2021/04/13 01:20:43;;;;;;;8.60;5.88;;;;;;;5.17;50.60;103061.38;4917718;28;107115;-71
2021/04/13 01:23:15;;;;;;;10.93;5.70;;;;;;;5.15;50.66;103062.22;4918399;28;109526;-72
2021/04/13 01:25:47;;;;;;;10.75;5.35;;;;;;;5.12;50.83;103063.06;4911851;28;124118;-72
2021/04/13 01:28:18;;;;;;;11.55;5.95;;;;;;;5.11;50.98;103066.56;4918494;28;124145;-71
2021/04/13 01:30:51;;;;;;;8.65;5.75;;;;;;;5.10;50.99;103064.78;4934168;28;108717;-72
2021/04/13 01:33:41;;;;;;;10.98;6.00;;;;;;;5.09;51.01;103052.53;4918624;28;108981;-72
2021/04/13 01:36:29;;;;;;;12.50;5.82;;;;;;;5.06;51.01;103053.34;4931606;28;124340;-72
2021/04/13 01:39:00;;;;;;;9.90;5.57;;;;;;;5.05;50.98;103061.22;4932599;28;123585;-72
2021/04/13 01:41:43;;;;;;;11.20;5.82;;;;;;;5.04;51.10;103056.81;4933386;28;108787;-72
2021/04/13 01:44:12;;;;;;;8.40;5.50;;;;;;;5.03;51.22;103060.34;4918485;28;109073;-71
2021/04/13 01:46:41;;;;;;;9.38;5.38;;;;;;;5.01;51.12;103064.66;4917247;28;124800;-72
2021/04/13 01:49:08;;;;;;;11.82;5.88;;;;;;;4.99;51.36;103061.13;4917311;28;123679;-71
2021/04/13 01:51:35;;;;;;;8.57;5.97;;;;;;;5.00;51.11;103057.66;4919188;28;108228;-73
2021/04/13 01:54:08;;;;;;;9.73;5.70;;;;;;;4.99;51.38;103063.75;4919235;28;109235;-72
2021/04/13 01:57:01;;;;;;;9.48;5.47;;;;;;;4.99;51.55;103066.38;4900912;28;123408;-71
2021/04/13 01:59:42;;;;;;;10.02;5.63;;;;;;;5.00;51.36;103060.28;4917995;28;124471;-71
2021/04/13 02:02:39;;;;;;;11.60;5.50;;;;;;;4.99;51.36;103061.13;4918337;28;110281;-72
2021/04/13 02:05:13;;;;;;;10.93;5.28;;;;;;;4.99;51.44;103063.75;4900526;28;109338;-72
2021/04/13 02:08:03;;;;;;;8.70;4.88;;;;;;;4.95;51.34;103060.19;4933241;28;122934;-71
2021/04/13 02:10:38;;;;;;;8.93;5.45;;;;;;;4.95;51.39;103064.56;4916959;28;124269;-75
2021/04/13 02:13:15;;;;;;;12.02;5.65;;;;;;;4.93;51.63;103071.56;4933098;28;108682;-72
2021/04/13 02:15:52;;;;;;;12.30;5.38;;;;;;;4.92;51.67;103075.06;4901569;28;108603;-75
2021/04/13 02:18:24;;;;;;;10.82;5.82;;;;;;;4.92;51.68;103069.81;4917628;28;124898;-71
2021/04/13 02:20:52;;;;;;;7.93;5.20;;;;;;;4.93;51.70;103076.81;4917558;28;123228;-70
2021/04/13 02:23:26;;;;;;;8.07;5.05;;;;;;;4.92;52.03;103075.06;4917799;28;108885;-72
2021/04/13 02:25:54;;;;;;;9.65;5.60;;;;;;;4.93;51.76;103076.81;4918485;28;108913;-71
2021/04/13 02:28:22;;;;;;;9.00;5.32;;;;;;;4.93;51.80;103074.19;4914419;28;123492;-72
2021/04/13 02:30:49;;;;;;;9.20;5.40;;;;;;;4.93;51.92;103079.44;4935989;28;121919;-71
2021/04/13 02:33:23;;;;;;;10.95;5.35;;;;;;;4.93;52.11;103076.81;4921316;28;107662;-71
2021/04/13 02:35:50;;;;;;;10.32;5.60;;;;;;;4.92;51.89;103080.31;4922225;28;109237;-71
2021/04/13 02:38:23;;;;;;;8.98;5.72;;;;;;;4.91;52.18;103073.28;4919166;28;123621;-72
2021/04/13 02:41:12;;;;;;;8.52;5.70;;;;;;;4.90;52.15;103075.03;4919539;28;124290;-72
2021/04/13 02:43:43;;;;;;;13.40;5.30;;;;;;;4.88;52.13;103069.75;4918993;28;110236;-72
2021/04/13 02:46:21;;;;;;;12.20;5.78;;;;;;;4.88;52.17;103068.88;4918985;28;108859;-71
2021/04/13 02:48:54;;;;;;;11.55;5.88;;;;;;;4.85;52.34;103069.69;4918587;28;123970;-71
2021/04/13 02:51:22;;;;;;;9.50;5.50;;;;;;;4.85;52.35;103069.69;4919345;28;123623;-72
2021/04/13 02:53:54;;;;;;;13.80;5.75;;;;;;;4.84;52.49;103073.19;4918651;28;108972;-71
2021/04/13 02:56:25;;;;;;;9.23;5.28;;;;;;;4.85;52.51;103076.69;4920185;28;109912;-73
2021/04/13 02:59:18;;;;;;;10.32;5.53;;;;;;;4.82;52.51;103080.16;4904551;28;123985;-71
2021/04/13 03:01:49;;;;;;;8.63;5.53;;;;;;;4.82;52.39;103080.16;4932054;28;123520;-71
2021/04/13 03:04:18;;;;;;;9.05;5.40;;;;;;;4.83;52.50;103076.66;4919187;28;109048;-72
2021/04/13 03:06:51;;;;;;;14.35;5.63;;;;;;;4.82;52.82;103080.16;4920776;28;108925;-72
2021/04/13 03:09:22;;;;;;;9.52;5.40;;;;;;;4.81;52.63;103078.38;4930305;28;122447;-71
2021/04/13 03:11:55;;;;;;;14.02;5.68;;;;;;;4.82;52.80;103074.91;4918948;28;124612;-71
2021/04/13 03:14:23;;;;;;;11.20;5.32;;;;;;;4.83;52.75;103081.03;4920395;28;109803;-72
2021/04/13 03:16:53;;;;;;;10.85;5.28;;;;;;;4.81;52.94;103073.13;4921719;28;109167;-71
2021/04/13 03:19:24;;;;;;;10.70;5.80;;;;;;;4.83;52.81;103081.91;4919727;28;124088;-73
2021/04/13 03:21:57;;;;;;;11.10;5.10;;;;;;;4.83;52.75;103081.91;4919337;28;123983;-73
2021/04/13 03:24:33;;;;;;;13.45;5.32;;;;;;;4.82;53.03;103080.16;4919593;28;109873;-75
2021/04/13 03:27:03;;;;;;;13.02;5.57;;;;;;;4.83;53.08;103076.66;4920320;28;108311;-72
2021/04/13 03:29:42;;;;;;;10.88;5.88;;;;;;;4.82;53.18;103080.16;4918069;28;124121;-71
2021/04/13 03:32:10;;;;;;;12.23;5.13;;;;;;;4.82;52.94;103074.91;4919661;28;124443;-71
2021/04/13 03:34:42;;;;;;;12.30;4.90;;;;;;;4.81;53.14;103078.38;4919250;28;108269;-71
2021/04/13 03:37:10;;;;;;;9.77;5.30;;;;;;;4.81;53.29;103081.00;4919962;28;107059;-71
2021/04/13 03:39:41;;;;;;;8.13;5.07;;;;;;;4.79;53.29;103081.84;4919617;28;123567;-71
2021/04/13 03:44:37;;;;;;;11.20;5.78;;;;;;;4.78;53.38;103083.56;4899395;28;110114;-78
2021/04/13 03:47:13;;;;;;;9.43;5.95;;;;;;;4.76;53.62;103085.28;4904017;28;107924;-76
2021/04/13 03:49:42;;;;;;;14.48;5.82;;;;;;;4.76;53.32;103090.56;4897810;28;122471;-78
2021/04/13 03:52:25;;;;;;;14.65;6.05;;;;;;;4.73;53.81;103087.91;4909699;28;124215;-77
2021/04/13 03:54:52;;;;;;;12.38;5.90;;;;;;;4.73;53.45;103093.16;4914145;28;108475;-77
2021/04/13 03:57:33;;;;;;;13.85;6.13;;;;;;;4.72;53.59;103087.88;4879416;28;108337;-76
2021/04/13 04:00:04;;;;;;;10.57;5.38;;;;;;;4.72;53.47;103088.75;4904164;28;124298;-77
2021/04/13 04:02:31;;;;;;;9.95;5.97;;;;;;;4.71;53.71;103087.00;4898652;28;124533;-77
2021/04/13 04:05:10;;;;;;;11.40;5.90;;;;;;;4.68;53.79;103086.94;4896011;28;109205;-78
2021/04/13 04:07:41;;;;;;;15.38;6.00;;;;;;;4.68;53.72;103097.44;4910854;28;109280;-77
2021/04/13 04:10:29;;;;;;;12.52;5.90;;;;;;;4.64;53.75;103093.00;4896274;28;122982;-78
2021/04/13 04:13:17;;;;;;;10.77;6.00;;;;;;;4.64;53.68;103090.38;4897201;28;125083;-78
2021/04/13 04:15:49;;;;;;;10.70;6.18;;;;;;;4.62;53.69;103086.84;4901077;28;108440;-77
2021/04/13 04:18:33;;;;;;;14.65;7.35;;;;;;;4.62;53.93;103097.34;4895090;28;108884;-77
2021/04/13 04:21:13;;;;;;;10.85;6.68;;;;;;;4.61;53.81;103095.56;4894274;28;123922;-77
2021/04/13 04:23:40;;;;;;;13.13;6.57;;;;;;;4.61;53.80;103100.81;4895486;28;123915;-78
2021/04/13 04:26:07;;;;;;;14.80;7.40;;;;;;;4.59;53.74;103099.91;4912744;28;108455;-77
2021/04/13 04:28:37;;;;;;;16.10;6.88;;;;;;;4.59;53.94;103099.91;4896944;28;108912;-77
2021/04/13 04:31:36;;;;;;;12.95;6.60;;;;;;;4.56;54.06;103097.22;4896592;28;124592;-77
2021/04/13 04:34:14;;;;;;;11.13;6.82;;;;;;;4.56;53.81;103102.47;4902113;28;123511;-77
2021/04/13 04:36:51;;;;;;;16.27;7.38;;;;;;;4.55;54.09;103111.22;4892580;28;110648;-77
2021/04/13 04:39:29;;;;;;;11.63;6.88;;;;;;;4.53;54.02;103112.94;4894462;28;112878;-77
2021/04/13 04:42:00;;;;;;;11.23;6.78;;;;;;;4.52;53.78;103111.16;4906921;28;124690;-77
2021/04/13 04:44:29;;;;;;;12.05;6.82;;;;;;;4.51;54.03;103115.53;4896277;28;124109;-77
2021/04/13 04:47:00;;;;;;;13.95;7.20;;;;;;;4.51;54.07;103119.91;4895012;28;109482;-77
2021/04/13 04:49:40;;;;;;;12.18;7.40;;;;;;;4.49;54.31;103128.63;4894730;28;108812;-77
2021/04/13 04:52:07;;;;;;;19.92;7.68;;;;;;;4.49;54.03;103133.88;4894753;28;124045;-77
2021/04/13 04:54:34;;;;;;;16.00;7.93;;;;;;;4.49;54.19;103135.63;4896926;28;123731;-77
2021/04/13 04:57:01;;;;;;;13.85;7.32;;;;;;;4.48;54.23;103132.13;4916571;28;108944;-76
2021/04/13 04:59:27;;;;;;;15.30;8.18;;;;;;;4.49;54.46;103133.88;4885210;28;108199;-77
2021/04/13 05:01:54;;;;;;;15.75;7.93;;;;;;;4.49;54.33;103133.88;4889930;28;124169;-77
2021/04/13 05:04:21;;;;;;;13.68;8.05;;;;;;;4.49;54.39;103133.88;4896670;28;123932;-77
2021/04/13 05:06:47;;;;;;;16.77;8.30;;;;;;;4.51;54.27;103135.66;4896268;28;109202;-76
2021/04/13 05:09:14;;;;;;;17.65;8.27;;;;;;;4.49;54.30;103141.72;4896406;28;107910;-77
2021/04/13 05:11:40;;;;;;;16.23;7.75;;;;;;;4.51;54.65;103144.38;4896410;28;124707;-77
2021/04/13 05:14:09;;;;;;;16.10;7.97;;;;;;;4.53;54.34;103144.44;4911124;28;123695;-77
2021/04/13 05:16:35;;;;;;;16.10;8.43;;;;;;;4.53;54.60;103150.53;4897088;28;108584;-77
2021/04/13 05:19:04;;;;;;;17.20;8.38;;;;;;;4.55;54.72;103147.97;4897918;28;108610;-76
2021/04/13 05:21:30;;;;;;;18.27;8.20;;;;;;;4.56;54.68;103149.69;4900920;28;123334;-78
2021/04/13 05:23:57;;;;;;;20.00;8.82;;;;;;;4.57;54.65;103146.25;4882896;28;122940;-78
2021/04/13 05:26:23;;;;;;;18.60;8.13;;;;;;;4.60;54.78;103156.81;4878146;28;109853;-77
2021/04/13 05:28:50;;;;;;;14.98;8.07;;;;;;;4.61;54.74;103148.94;4895459;28;109501;-77
2021/04/13 05:31:16;;;;;;;14.98;8.35;;;;;;;4.63;54.94;103162.09;4894412;28;124740;-77
2021/04/13 05:33:44;;;;;;;15.73;8.48;;;;;;;4.65;54.87;103155.13;4895919;28;123079;-78
2021/04/13 05:36:11;;;;;;;21.35;9.13;;;;;;;4.67;54.93;103164.81;4880546;28;108468;-77
2021/04/13 05:38:41;;;;;;;16.65;9.52;;;;;;;4.70;55.05;103168.34;4893224;28;108901;-78
2021/04/13 05:41:13;;;;;;;17.50;9.30;;;;;;;4.72;55.06;103178.00;4895883;28;123523;-77
2021/04/13 05:43:41;;;;;;;17.83;9.07;;;;;;;4.74;55.11;103171.03;4911572;28;124207;-77
2021/04/13 05:46:07;;;;;;;18.75;9.63;;;;;;;4.77;55.22;103180.72;4895478;28;109574;-77
2021/04/13 05:48:34;;;;;;;17.00;9.68;;;;;;;4.80;55.22;103186.91;4895138;28;109079;-77
2021/04/13 05:51:01;;;;;;;16.05;9.55;;;;;;;4.83;55.13;103186.94;4894800;28;122159;-78
2021/04/13 05:53:27;;;;;;;17.77;9.23;;;;;;;4.87;55.57;103183.50;4895740;28;123910;-78
2021/04/13 05:55:55;;;;;;;18.70;9.85;;;;;;;4.91;55.40;103183.56;4911962;28;108512;-77
2021/04/13 05:58:32;;;;;;;19.92;10.35;;;;;;;4.95;55.37;103185.38;4893948;28;108675;-77
2021/04/13 06:01:02;;;;;;;15.98;9.48;;;;;;;5.00;55.50;103188.97;4877003;28;123601;-77
2021/04/13 06:03:29;;;;;;;18.98;9.77;;;;;;;5.04;55.44;103190.78;4896296;28;122583;-77
2021/04/13 06:05:56;;;;;;;14.45;10.02;;;;;;;5.09;55.57;103189.09;4896782;28;109151;-77
2021/04/13 06:08:24;;;;;;;16.75;10.70;;;;;;;5.15;55.50;103194.44;4898746;28;109288;-77
2021/04/13 06:10:56;;;;;;;17.52;10.30;;;;;;;5.20;55.75;103198.03;4906584;28;123980;-77
2021/04/13 06:13:24;;;;;;;17.98;10.57;;;;;;;5.26;55.86;103198.13;4899206;28;123603;-77
2021/04/13 06:15:54;;;;;;;21.95;9.75;;;;;;;5.35;55.62;103201.72;4884320;28;110524;-77
2021/04/13 06:18:22;;;;;;;17.58;10.48;;;;;;;5.42;55.76;103203.59;4914442;28;109283;-77
2021/04/13 06:20:49;;;;;;;20.08;11.00;;;;;;;5.50;55.86;103206.34;4911043;28;123283;-77
2021/04/13 06:23:16;;;;;;;20.50;11.15;;;;;;;5.57;56.00;103214.31;4906138;28;123718;-77
2021/04/13 06:25:43;;;;;;;24.48;11.48;;;;;;;5.68;56.00;103218.88;4899973;28;109185;-77
2021/04/13 06:28:10;;;;;;;35.33;11.85;;;;;;;5.77;55.90;103216.38;4900139;28;109172;-77
2021/04/13 06:30:40;;;;;;;24.42;10.80;;;;;;;5.90;56.03;103223.53;4896758;28;124277;-77
2021/04/13 06:33:07;;;;;;;23.95;11.73;;;;;;;6.02;56.07;103223.72;4893028;28;123709;-77
2021/04/13 06:35:34;;;;;;;27.35;11.32;;;;;;;6.16;56.15;103225.63;4881796;28;108664;-77
2021/04/13 06:38:07;;;;;;;32.30;11.68;;;;;;;6.30;56.18;103239.84;4895865;28;109220;-78
2021/04/13 06:41:01;;;;;;;22.58;11.15;;;;;;;6.45;56.05;103233.00;4894207;28;123956;-77
2021/04/13 06:44:13;;;;;;;24.27;11.10;;;;;;;6.61;56.41;103232.25;4896783;28;124564;-78
2021/04/13 06:47:06;;;;;;;21.20;10.63;;;;;;;6.80;56.33;103231.59;4864077;28;109787;-77
2021/04/13 06:49:57;;;;;;;18.75;9.40;;;;;;;7.00;56.29;103233.50;4894981;28;110214;-77
2021/04/13 06:52:50;;;;;;;19.00;8.75;;;;;;;7.21;56.45;103232.78;4894982;28;124138;-77
2021/04/13 06:55:32;;;;;;;13.43;7.57;;;;;;;7.44;56.41;103240.88;4913146;28;123473;-77
2021/04/13 06:58:28;;;;;;;13.05;7.45;;;;;;;7.69;56.13;103239.28;4910184;28;108413;-77
2021/04/13 07:01:11;;;;;;;;;;;;;;;7.92;55.98;103244.66;4876834;28;108650;-75
2021/04/13 07:03:53;;;;;;;15.07;6.95;;;;;;;8.19;55.82;103248.28;4910419;28;124508;-75
2021/04/13 07:06:32;;;;;;;14.27;7.10;;;;;;;8.39;55.85;103257.16;4898416;28;123885;-76
2021/04/13 07:09:07;;;;;;;13.57;6.22;;;;;;;8.63;55.76;103259.91;4896595;28;110639;-77
2021/04/13 07:11:49;;;;;;;11.70;5.70;;;;;;;8.86;55.46;103252.03;4912302;28;108972;-76
2021/04/13 07:14:35;;;;;;;15.38;4.95;;;;;;;9.05;54.86;103259.06;4897052;28;123092;-77
2021/04/13 07:17:07;;;;;;;10.85;4.20;;;;;;;9.23;54.43;103259.94;4896398;28;123496;-76
2021/04/13 07:19:48;;;;;;;10.82;4.28;;;;;;;9.37;54.21;103258.19;4897484;28;108956;-77
2021/04/13 07:22:28;;;;;;;18.52;4.80;;;;;;;9.51;53.96;103259.06;4903012;28;109314;-76
2021/04/13 07:25:14;;;;;;;10.38;4.75;;;;;;;9.68;54.07;103255.47;4882784;28;125478;-76
2021/04/13 07:27:47;;;;;;;10.00;4.50;;;;;;;9.83;53.41;103258.09;4894050;28;124650;-76
2021/04/13 07:30:26;;;;;;;10.52;4.43;;;;;;;9.97;53.10;103262.47;4898981;28;109500;-76
2021/04/13 07:32:55;;;;;;;14.25;4.13;;;;;;;10.11;53.00;103263.28;4901120;28;109524;-76
2021/04/13 07:35:26;;;;;;;11.57;4.40;;;;;;;10.22;52.85;103269.41;4904756;28;125471;-76
2021/04/13 07:37:55;;;;;;;9.45;3.75;;;;;;;10.33;52.70;103262.31;4896699;28;124334;-76
2021/04/13 07:40:26;;;;;;;9.80;3.72;;;;;;;10.47;52.51;103264.00;4891266;28;107222;-76
2021/04/13 07:43:01;;;;;;;12.48;3.78;;;;;;;10.55;51.66;103262.22;4910758;28;108480;-76
2021/04/13 07:45:39;;;;;;;13.50;5.18;;;;;;;10.60;51.82;103247.16;4897779;28;123319;-76
2021/04/13 07:48:54;;;;;;;11.18;4.00;;;;;;;10.68;51.65;103255.03;4905351;28;123350;-76
2021/04/13 07:51:41;;;;;;;8.52;2.92;;;;;;;10.82;51.67;103254.97;4882103;28;109123;-76
2021/04/13 07:54:37;;;;;;;8.40;3.78;;;;;;;10.89;51.35;103251.38;4881930;28;108485;-77
2021/04/13 07:57:18;;;;;;;9.02;3.22;;;;;;;11.00;51.14;103248.63;4895284;28;123534;-76
2021/04/13 08:00:02;;;;;;;9.23;2.95;;;;;;;11.10;51.22;103251.19;4907147;28;123279;-76
2021/04/13 08:02:39;;;;;;;11.23;3.08;;;;;;;11.26;50.96;103251.06;4908951;28;110802;-76
2021/04/13 08:05:09;;;;;;;13.07;3.00;;;;;;;11.34;50.68;103249.22;4897624;28;109639;-76
2021/04/13 08:07:41;;;;;;;6.50;2.50;;;;;;;11.43;50.25;103251.81;4910686;28;124333;-75
2021/04/13 08:10:12;;;;;;;8.45;2.10;;;;;;;11.53;50.36;103259.63;4892232;28;124040;-76
2021/04/13 08:13:06;;;;;;;9.48;2.30;;;;;;;11.58;49.57;103252.53;4911403;28;108299;-76
2021/04/13 08:15:50;;;;;;;9.65;2.22;;;;;;;11.59;49.48;103254.28;4906632;28;107833;-76
2021/04/13 08:18:27;;;;;;;10.27;2.13;;;;;;;11.60;49.09;103245.41;4895389;28;122966;-76
2021/04/13 08:21:18;;;;;;;7.18;2.40;;;;;;;11.60;48.97;103250.72;4895338;28;123870;-76
2021/04/13 08:23:46;;;;;;;6.93;1.80;;;;;;;11.62;48.77;103254.25;4897336;28;109287;-76
2021/04/13 08:26:32;;;;;;;11.82;2.13;;;;;;;11.62;48.68;103254.25;4912646;28;108958;-76
2021/04/13 08:29:08;;;;;;;6.90;2.05;;;;;;;11.68;48.83;103270.13;4891560;28;122155;-77
2021/04/13 08:34:45;;;;;;;8.35;1.75;;;;;;;11.78;48.27;103262.94;4895841;28;108987;-78
2021/04/13 08:37:30;;;;;;;9.60;1.95;;;;;;;11.83;48.23;103259.34;4903720;28;107188;-78
2021/04/13 08:40:29;;;;;;;6.15;1.75;;;;;;;11.92;48.37;103262.81;4902352;28;123090;-77
2021/04/13 08:42:59;;;;;;;6.97;1.73;;;;;;;12.00;48.25;103266.25;4914827;28;123457;-77
2021/04/13 08:45:35;;;;;;;7.57;2.13;;;;;;;12.09;48.00;103274.09;4912072;28;108974;-77
2021/04/13 08:48:17;;;;;;;9.93;2.33;;;;;;;12.12;47.69;103271.41;4898885;28;108291;-76
2021/04/13 08:50:51;;;;;;;9.07;1.73;;;;;;;12.14;47.10;103269.59;4906079;28;123015;-77
2021/04/13 08:53:35;;;;;;;7.07;2.00;;;;;;;12.17;47.25;103269.59;4887022;28;124055;-77
2021/04/13 08:56:18;;;;;;;6.40;1.90;;;;;;;12.15;46.95;103268.72;4891440;28;110382;-77
2021/04/13 08:58:54;;;;;;;6.85;2.00;;;;;;;12.11;46.45;103274.97;4911588;28;109216;-77
2021/04/13 09:01:33;;;;;;;5.32;1.60;;;;;;;12.04;46.12;103273.28;4896093;28;122879;-77
2021/04/13 09:04:02;;;;;;;8.73;2.00;;;;;;;11.97;46.74;103267.16;4911180;28;123290;-77
2021/04/13 09:07:00;;;;;;;7.75;1.98;;;;;;;12.00;46.91;103263.59;4911967;28;109197;-77
2021/04/13 09:09:42;;;;;;;7.35;2.08;;;;;;;12.11;46.95;103274.97;4911165;28;108928;-77
2021/04/13 09:12:18;;;;;;;5.57;1.85;;;;;;;12.15;46.74;103266.06;4894347;28;122425;-77
2021/04/13 09:14:53;;;;;;;6.63;2.05;;;;;;;12.22;46.92;103261.53;4895597;28;124477;-77
2021/04/13 09:18:00;;;;;;;7.93;1.90;;;;;;;12.34;46.81;103265.81;4895124;28;109215;-78
2021/04/13 09:20:47;;;;;;;8.98;2.20;;;;;;;12.45;46.82;103263.88;4894678;28;109277;-78
2021/04/13 09:23:26;;;;;;;10.45;1.88;;;;;;;12.51;46.19;103262.91;4894919;28;123922;-78
2021/04/13 09:25:55;;;;;;;6.72;1.60;;;;;;;12.54;45.85;103269.06;4893829;28;124443;-78
2021/04/13 09:28:38;;;;;;;6.78;1.67;;;;;;;12.60;45.79;103269.00;4910478;28;109217;-78
2021/04/13 09:31:11;;;;;;;9.40;1.80;;;;;;;12.66;45.49;103274.22;4908164;28;108972;-79
2021/04/13 09:33:40;;;;;;;7.25;1.33;;;;;;;12.73;45.58;103271.47;4895025;28;123631;-78
2021/04/13 09:36:14;;;;;;;5.85;2.20;;;;;;;12.79;45.12;103266.03;4888287;28;123425;-76
2021/04/13 09:39:02;;;;;;;6.15;2.08;;;;;;;12.87;45.43;103260.63;4907406;28;108237;-77
2021/04/13 09:41:44;;;;;;;5.82;1.75;;;;;;;12.96;45.13;103272.00;4903960;28;108081;-78
2021/04/13 09:44:32;;;;;;;6.47;1.60;;;;;;;12.98;44.24;103264.88;4935238;22;123874;-71
2021/04/13 09:47:08;;;;;;;8.43;1.95;;;;;;;12.97;44.10;103267.53;4931807;28;124639;-70
2021/04/13 09:49:52;;;;;;;7.03;1.80;;;;;;;12.98;44.38;103266.66;4933111;28;97126;-71
2021/04/13 09:52:28;;;;;;;6.85;1.67;;;;;;;13.04;44.25;103270.09;4930380;28;110015;-71
2021/04/13 09:55:10;;;;;;;4.93;1.85;;;;;;;13.10;44.29;103265.56;4923370;28;123170;-71
2021/04/13 09:57:48;;;;;;;3.92;1.20;;;;;;;13.15;43.85;103258.41;4901303;28;124848;-71
2021/04/13 10:00:38;;;;;;;3.33;1.17;;;;;;;13.20;43.32;103256.50;4911407;28;109346;-71
2021/04/13 10:03:34;;;;;;;5.55;1.35;;;;;;;13.22;42.86;103252.94;4894617;28;108958;-71
2021/04/13 10:06:01;;;;;;;4.47;1.50;;;;;;;13.30;42.79;103250.19;4905056;28;124053;-70
2021/04/13 10:08:34;;;;;;;6.60;1.55;;;;;;;13.35;42.68;103242.09;4906587;28;123784;-72
2021/04/13 10:11:07;;;;;;;6.72;1.67;;;;;;;13.42;42.82;103247.28;4895687;28;107930;-73
2021/04/13 10:14:05;;;;;;;5.50;1.60;;;;;;;13.43;42.59;103251.72;4908937;28;109332;-72
2021/04/13 10:17:03;;;;;;;4.22;1.50;;;;;;;13.42;41.97;103254.38;4910877;28;124661;-70
2021/04/13 10:19:45;;;;;;;3.67;1.35;;;;;;;13.43;41.66;103246.38;4910069;28;124266;-70
2021/04/13 10:22:42;;;;;;;3.35;1.13;;;;;;;13.46;41.03;103241.91;4913146;28;108896;-70
2021/04/13 10:25:38;;;;;;;5.32;1.20;;;;;;;13.51;41.32;103248.03;4909458;28;109658;-71
2021/04/13 10:28:36;;;;;;;4.40;1.48;;;;;;;13.59;41.33;103246.09;4912201;28;127097;-70
2021/04/13 10:31:34;;;;;;;3.85;1.30;;;;;;;13.65;40.78;103229.97;4911917;28;123783;-70
2021/04/13 10:34:02;;;;;;;6.70;1.58;;;;;;;13.74;40.89;103235.13;4907044;28;109152;-70
2021/04/13 10:36:57;;;;;;;6.60;1.63;;;;;;;13.74;40.65;103229.81;4909059;28;108821;-70
2021/04/13 10:39:45;;;;;;;4.63;1.60;;;;;;;13.65;40.33;103240.63;4921082;28;123277;-70
2021/04/13 10:42:39;;;;;;;4.10;1.40;;;;;;;13.60;40.46;103231.88;4926264;28;124337;-70
2021/04/13 10:45:26;;;;;;;2.78;1.50;;;;;;;13.65;40.72;103229.13;4910626;28;110929;-69
2021/04/13 10:48:31;;;;;;;5.28;1.80;;;;;;;13.76;40.99;103228.00;4907456;28;110760;-69
2021/04/13 10:51:17;;;;;;;5.72;1.63;;;;;;;13.83;40.81;103229.63;4903755;28;123980;-71
2021/04/13 10:54:11;;;;;;;6.55;1.50;;;;;;;13.82;40.18;103227.88;4911322;28;124347;-70
2021/04/13 10:57:02;;;;;;;3.30;1.55;;;;;;;13.82;40.11;103219.91;4912452;28;109134;-71
2021/04/13 10:59:54;;;;;;;4.68;1.60;;;;;;;13.83;40.45;103202.97;4915313;28;108827;-70
2021/04/13 11:02:56;;;;;;;5.00;1.40;;;;;;;13.91;39.13;103209.94;4920446;28;123516;-70
2021/04/13 11:05:59;;;;;;;4.55;1.73;;;;;;;13.96;39.71;103203.59;4909730;28;123790;-70
2021/04/13 11:08:54;;;;;;;4.45;1.30;;;;;;;13.94;39.52;103215.22;4905120;28;109123;-71
2021/04/13 11:11:39;;;;;;;4.13;1.67;;;;;;;13.87;39.14;103206.47;4907306;28;109092;-71
2021/04/13 11:14:17;;;;;;;3.75;1.40;;;;;;;13.78;39.04;103207.53;4906730;28;124879;-70
2021/04/13 11:17:16;;;;;;;4.95;1.83;;;;;;;13.77;38.62;103208.44;5391940;22;123468;31
2021/04/13 11:20:15;;;;;;;6.15;1.60;;;;;;;13.77;38.88;103195.13;4922027;28;107969;-70
2021/04/13 11:22:53;;;;;;;5.10;1.58;;;;;;;13.75;38.76;103194.28;4937490;28;108920;-71
2021/04/13 11:25:29;;;;;;;5.32;1.48;;;;;;;13.72;38.59;103189.00;4937851;28;123750;-70
2021/04/13 11:28:39;;;;;;;4.90;1.70;;;;;;;13.76;39.21;103196.03;4947046;28;123968;-71
2021/04/13 11:31:34;;;;;;;4.20;1.30;;;;;;;13.84;36.64;103187.88;4957806;28;109600;-70
2021/04/13 11:34:20;;;;;;;5.55;1.48;;;;;;;13.82;36.95;103182.59;4957661;28;109512;-70
2021/04/13 11:37:26;;;;;;;5.00;1.77;;;;;;;13.76;37.16;103185.38;4957733;28;124398;-70
2021/04/13 11:40:02;;;;;;;5.75;1.70;;;;;;;13.71;37.36;103181.94;4947842;28;124334;-70
2021/04/13 11:42:31;;;;;;;3.60;1.30;;;;;;;13.63;37.66;103186.53;4956483;28;109840;-71
2021/04/13 11:45:16;;;;;;;5.32;1.70;;;;;;;13.58;38.18;103191.06;4951933;28;109603;-71
2021/04/13 11:47:57;;;;;;;6.60;1.60;;;;;;;13.58;38.10;103181.31;4959158;28;123822;-71
2021/04/13 11:50:55;;;;;;;3.72;1.33;;;;;;;13.59;37.63;103182.19;4954450;28;123152;-70
2021/04/13 11:53:32;;;;;;;3.88;1.58;;;;;;;13.59;37.90;103171.53;4952774;28;110182;-70
2021/04/13 11:56:00;;;;;;;2.92;1.25;;;;;;;13.59;37.80;103174.19;4959369;28;109447;-70
2021/04/13 11:58:32;;;;;;;4.60;1.30;;;;;;;13.56;37.33;103177.81;4958772;28;123162;-71
2021/04/13 12:01:13;;;;;;;4.38;1.15;;;;;;;13.58;37.66;103180.41;4940329;28;125248;-71
2021/04/13 12:03:58;;;;;;;6.53;1.67;;;;;;;13.61;37.57;103178.56;4958248;28;108688;-70
2021/04/13 12:06:47;;;;;;;3.45;1.38;;;;;;;13.72;37.84;103162.38;4955135;28;108069;-70
2021/04/13 12:09:48;;;;;;;3.70;1.38;;;;;;;13.90;38.69;103160.22;4942178;28;123353;-70